Flight Track Log - Related Links

Times and Time Zones

All times are in EDT time to prevent confusion due to time zone crossing. See the N9246F flight status page for this flight to view local times or setup timezone preferences in your user account.

Time Position Orientation Groundspeed Altitude Reporting Facility
EDT Latitude Longitude Course Direction KTS MPH feet Rate Location/Type
Thu 10:13:15 AM 28.4667 -80.8833 159° South 81 93 2,900  Level Orlando TRACON
Thu 10:14:09 AM 28.4333 -80.8833 180° South 101 116 3,000  Climbing Orlando TRACON
Thu 10:15:09 AM 28.4167 -80.8833 180° South 105 121 2,900  Descending Orlando TRACON
Thu 10:16:00 AM 28.4352 -80.7694 180° South  Level Estimated
Thu 10:16:09 AM 28.3833 -80.8833 180° South 102 117 3,000  Level Orlando TRACON
Thu 10:17:00 AM 28.4226 -80.7624 154° Southeast  Level FlightAware Approximate
Thu 10:17:04 AM 28.3500 -80.8833 180° South 102 117 3,000  Level Orlando TRACON
Thu 10:18:00 AM 28.4093 -80.7576 159° South  Level Estimated
Thu 10:18:16 AM 28.3167 -80.8833 180° South 100 115 2,400  Level Orlando TRACON
Thu 10:19:04 AM 28.3000 -80.8833 180° South 96 110 2,000 -222 Descending Orlando TRACON
Thu 10:20:04 AM 28.2667 -80.8833 180° South 101 116 2,000  Level Orlando TRACON
Thu 10:21:04 AM 28.2500 -80.8833 180° South 102 117 2,000  Level Orlando TRACON
Thu 10:22:16 AM 28.2167 -80.8833 180° South 101 116 2,000  Level Orlando TRACON
Thu 10:23:05 AM 28.1833 -80.8667 156° South 100 115 2,000  Level Orlando TRACON
Thu 10:24:05 AM 28.1667 -80.8500 139° Southeast 103 119 2,000  Level Orlando TRACON
Thu 10:25:06 AM 28.1333 -80.8500 180° South 105 121 2,000  Level Orlando TRACON
Thu 10:26:06 AM 28.1167 -80.8333 139° Southeast 102 117 2,000  Level Orlando TRACON
Thu 10:27:06 AM 28.0833 -80.8167 156° South 105 121 2,000  Level Orlando TRACON
Thu 10:28:06 AM 28.1000 -80.7833 60° Northeast 97 112 2,000 -190 Level Orlando TRACON
Thu 10:29:12 AM 28.1000 -80.7500 90° East 60 69 1,600 -298 Descending Orlando TRACON
Thu 10:30:07 AM 28.1000 -80.7333 90° East 71 82 1,400 -286 Descending Orlando TRACON
Thu 10:31:18 AM 28.1000 -80.7000 90° East 73 84 1,000 -409 Descending Orlando TRACON
Thu 10:32:19 AM 28.1000 -80.6833 90° East 68 78 500 -171 Descending Orlando TRACON
Thu 10:34:49 AM 28.1000 -80.6333 109° East 82 94 400 183 Descending Orlando TRACON
Thu 10:36:08 AM 28.1000 -80.6000 90° East 73 84 1,200 604 Climbing Orlando TRACON
Thu 10:37:08 AM 28.1000 -80.5833 90° East 77 89 1,800 600 Climbing Orlando TRACON
Thu 10:38:08 AM 28.1000 -80.5500 90° East 78 90 2,400 550 Climbing Orlando TRACON
Thu 10:39:08 AM 28.1167 -80.5333 41° Northeast 87 100 2,900 500 Climbing Orlando TRACON
Thu 10:40:08 AM 28.1333 -80.5500 319° Northwest 98 113 3,400 476 Climbing Orlando TRACON
Thu 10:41:14 AM 28.1167 -80.5833 240° Southwest 91 105 3,900 298 Climbing Orlando TRACON
Thu 10:42:09 AM 28.1167 -80.6167 270° West 97 112 4,000  Climbing Orlando TRACON
Thu 10:43:15 AM 28.1000 -80.6500 240° Southwest 100 115 3,900 -48 Descending Orlando TRACON
Thu 10:44:15 AM 28.1000 -80.6667 270° West 108 124 3,900 50 Level Orlando TRACON
Thu 10:45:15 AM 28.1167 -80.6667 360° North 106 122 4,000 48 Climbing Orlando TRACON
Thu 10:46:21 AM 28.1000 -80.6333 120° Southeast 94 108 4,000 -48 Level Orlando TRACON
Thu 10:47:21 AM 28.0833 -80.6333 180° South 105 121 3,900  Descending Orlando TRACON
Thu 10:48:22 AM 28.1000 -80.6667 300° West 102 117 4,000 52 Climbing Orlando TRACON
Thu 10:49:16 AM 28.1167 -80.6667 360° North 103 119 4,000  Level Orlando TRACON
Thu 10:50:16 AM 28.1000 -80.6333 120° Southeast 90 104 4,000  Level Orlando TRACON

Login

Don't have an account? Register now (free) for customized features, flight alerts, and more!